New Paltz, New York
Current Conditions -  °F | °C
As of 2:01 AM on Thursday 23 Oct 2014 (Local Time) from KPOU Reporting Station
Light Rain Light Rain  
Wind Chill: 50°   Ceiling: 1500
Heat Index: 50°   Visibility: 9mi
Dew Point: 46°   Wind: 13mph
Humidity: 86%   Direction: 10°N
Pressure: 29.8"   Gusts: NA
Location:  41.75°N, 74.08°W
Report Text: KPOU 230601Z AUTO 01011KT 9SM -RA OVC015 10/08 A2980 RMK AO2 P0001 T01000078 TSNO
Loading
Personal Weather Stations






























Interactive Weather Map
Tropical Storm Tracking
New forecast layout! Learn more

10-Day Weather Forecast

Advertisements
Track Severe Weather on mobile